Terminal Aerodrome Forecast
Issued by NWS

Home | Current Version | Previous Version | Text Only | Print | Product List | Glossary On
Versions: 1 2 3 4 5 6 7 8 9 10 11 12 13 14 15 16 17
000
FTUS46 KMFR 161734
TAFOTH
TAF
KOTH 161734Z 1618/1718 14006KT P6SM SCT050
     FM162100 07005KT P6SM FEW110
     FM171200 VRB03KT 6SM BR BKN070=

USA.gov is the U.S. government's official web portal to all federal, state and local government web resources and services.